Time;durP1;ratioP1;P1;durP2;ratioP2;P2;SDS_P1;SDS_P2;PMS_P1;PMS_P2;Temp;Humidity;BMP_temperature;BMP_pressure;BME280_temperature;BME280_humidity;BME280_pressure;Samples;Min_cycle;Max_cycle;Signal;HPM_P1;HPM_P2
2022/04/21 00:01:40;;;;;;;0.20;0.20;;;;;;;;;;4952597;28;20344;-83
2022/04/21 00:04:06;;;;;;;0.57;0.57;;;;;;;;;;4946002;28;20031;-83
2022/04/21 00:06:32;;;;;;;0.40;0.40;;;;;;;;;;4947514;28;20050;-82
2022/04/21 00:08:58;;;;;;;0.47;0.47;;;;;;;;;;4946454;28;20039;-82
2022/04/21 00:11:24;;;;;;;0.20;0.20;;;;;;;;;;4943957;29;21653;-82
2022/04/21 00:13:50;;;;;;;0.37;0.37;;;;;;;;;;4945538;28;20035;-81
2022/04/21 00:16:16;;;;;;;0.27;0.27;;;;;;;;;;4942597;28;20501;-82
2022/04/21 00:18:42;;;;;;;0.47;0.47;;;;;;;;;;4944649;28;20053;-81
2022/04/21 00:21:08;;;;;;;0.20;0.20;;;;;;;;;;4949359;28;20034;-82
2022/04/21 00:23:35;;;;;;;1.70;0.73;;;;;;;;;;4944098;28;20059;-82
2022/04/21 00:26:03;;;;;;;2.63;1.65;;;;;;;;;;4945980;28;20669;-83
2022/04/21 00:28:29;;;;;;;0.85;0.80;;;;;;;;;;4943018;28;20073;-83
2022/04/21 00:30:56;;;;;;;0.95;0.95;;;;;;;;;;4947338;28;20062;-83
2022/04/21 00:33:22;;;;;;;0.95;0.90;;;;;;;;;;4944587;28;20027;-83
2022/04/21 00:35:48;;;;;;;3.10;1.02;;;;;;;;;;4945426;28;20099;-83
2022/04/21 00:38:14;;;;;;;1.63;1.53;;;;;;;;;;4949040;28;20122;-82
2022/04/21 00:40:40;;;;;;;1.63;1.10;;;;;;;;;;4943048;28;20094;-82
2022/04/21 00:43:06;;;;;;;0.33;0.30;;;;;;;;;;4946941;28;21112;-83
2022/04/21 00:45:33;;;;;;;0.28;0.28;;;;;;;;;;4942351;28;20023;-83
2022/04/21 00:48:01;;;;;;;0.43;0.43;;;;;;;;;;4945540;28;20405;-84
2022/04/21 00:50:31;;;;;;;0.20;0.20;;;;;;;;;;4959884;28;20031;-83
2022/04/21 00:52:58;;;;;;;0.98;0.93;;;;;;;;;;4950904;28;20034;-83
2022/04/21 00:55:24;;;;;;;0.60;0.60;;;;;;;;;;4951527;28;20133;-83
2022/04/21 00:57:52;;;;;;;1.10;1.10;;;;;;;;;;4949434;28;20042;-83
2022/04/21 01:00:18;;;;;;;0.47;0.45;;;;;;;;;;4947932;28;20117;-82
2022/04/21 01:02:52;;;;;;;0.43;0.25;;;;;;;;;;4944738;28;20039;-84
2022/04/21 01:05:33;;;;;;;0.20;0.20;;;;;;;;;;4947928;28;20502;-82
2022/04/21 01:07:59;;;;;;;0.70;0.43;;;;;;;;;;4950630;28;20089;-83
2022/04/21 01:10:26;;;;;;;1.90;1.25;;;;;;;;;;4948710;28;20028;-84
2022/04/21 01:12:52;;;;;;;0.95;0.90;;;;;;;;;;4942474;28;20039;-83
2022/04/21 01:15:18;;;;;;;1.13;0.80;;;;;;;;;;4947313;28;20041;-83
2022/04/21 01:17:45;;;;;;;0.90;0.67;;;;;;;;;;4958149;28;20305;-83
2022/04/21 01:20:11;;;;;;;;;;;;;;;;;;4949574;28;20082;-84
2022/04/21 01:22:37;;;;;;;0.43;0.43;;;;;;;;;;4949744;28;19957;-82
2022/04/21 01:25:04;;;;;;;0.60;0.60;;;;;;;;;;4951843;28;20031;-83
2022/04/21 01:27:32;;;;;;;0.50;0.50;;;;;;;;;;4945443;28;20131;-83
2022/04/21 01:29:58;;;;;;;0.17;0.17;;;;;;;;;;4945248;28;20028;-82
2022/04/21 01:32:24;;;;;;;0.30;0.30;;;;;;;;;;4945612;28;20062;-83
2022/04/21 01:34:50;;;;;;;0.98;0.73;;;;;;;;;;4948096;28;20043;-83
2022/04/21 01:42:46;;;;;;;3.15;1.48;;;;;;;;;;4942401;28;20051;-83
2022/04/21 01:45:12;;;;;;;0.75;0.75;;;;;;;;;;4943673;28;20718;-82
2022/04/21 01:47:38;;;;;;;0.17;0.17;;;;;;;;;;4942069;28;20074;-82
2022/04/21 01:50:07;;;;;;;0.50;0.50;;;;;;;;;;4943824;29;20027;-83
2022/04/21 01:52:37;;;;;;;0.40;0.40;;;;;;;;;;4946496;28;20039;-83
2022/04/21 01:55:03;;;;;;;0.75;0.75;;;;;;;;;;4946054;28;20043;-83
2022/04/21 01:57:29;;;;;;;0.55;0.35;;;;;;;;;;4943598;28;20038;-82
2022/04/21 01:59:55;;;;;;;0.43;0.37;;;;;;;;;;4943507;28;20027;-82
2022/04/21 02:02:21;;;;;;;0.28;0.28;;;;;;;;;;4945812;28;20049;-83
2022/04/21 02:04:47;;;;;;;0.10;0.10;;;;;;;;;;4956807;28;20503;-83
2022/04/21 02:07:14;;;;;;;2.42;1.30;;;;;;;;;;4943755;28;20034;-82
2022/04/21 02:09:40;;;;;;;0.15;0.15;;;;;;;;;;4941077;28;20042;-83
2022/04/21 02:12:07;;;;;;;0.45;0.45;;;;;;;;;;4943752;28;20508;-83
2022/04/21 02:14:33;;;;;;;1.50;1.40;;;;;;;;;;4941306;28;20167;-81
2022/04/21 02:17:00;;;;;;;2.72;1.13;;;;;;;;;;4946096;28;20592;-82
2022/04/21 02:19:26;;;;;;;;;;;;;;;;;;4949142;28;20194;-84
2022/04/21 02:21:52;;;;;;;0.35;0.35;;;;;;;;;;4947778;28;19997;-82
2022/04/21 02:24:18;;;;;;;1.45;0.35;;;;;;;;;;4948415;28;20062;-83
2022/04/21 02:26:45;;;;;;;0.33;0.33;;;;;;;;;;4949733;28;20046;-81
2022/04/21 02:29:11;;;;;;;0.80;0.80;;;;;;;;;;4947160;28;20031;-82
2022/04/21 02:31:37;;;;;;;1.40;0.60;;;;;;;;;;4943719;28;20085;-82
2022/04/21 02:34:03;;;;;;;2.27;1.40;;;;;;;;;;4945448;28;20034;-82
2022/04/21 02:36:30;;;;;;;2.67;0.67;;;;;;;;;;4947646;28;20088;-82
2022/04/21 02:38:56;;;;;;;0.10;0.10;;;;;;;;;;4943992;28;20353;-83
2022/04/21 02:41:22;;;;;;;0.47;0.40;;;;;;;;;;4943802;28;20493;-82
2022/04/21 02:43:48;;;;;;;0.95;0.95;;;;;;;;;;4940753;28;20061;-81
2022/04/21 02:46:13;;;;;;;0.50;0.50;;;;;;;;;;4949936;28;20185;-83
2022/04/21 02:48:40;;;;;;;0.57;0.57;;;;;;;;;;4947369;28;20555;-82
2022/04/21 02:51:06;;;;;;;0.35;0.35;;;;;;;;;;4944976;28;20035;-83
2022/04/21 02:59:02;;;;;;;0.50;0.50;;;;;;;;;;4949694;28;20046;-82
2022/04/21 03:01:28;;;;;;;0.10;0.10;;;;;;;;;;4946263;28;20031;-83
2022/04/21 03:03:57;;;;;;;0.65;0.65;;;;;;;;;;4947603;28;20112;-83
2022/04/21 03:06:23;;;;;;;0.40;0.40;;;;;;;;;;4946261;28;20027;-81
2022/04/21 03:08:49;;;;;;;0.33;0.33;;;;;;;;;;4943881;28;20028;-83
2022/04/21 03:11:15;;;;;;;2.72;0.43;;;;;;;;;;4948776;28;20033;-83
2022/04/21 03:13:41;;;;;;;1.97;0.93;;;;;;;;;;4952360;28;20038;-83
2022/04/21 03:16:07;;;;;;;0.37;0.37;;;;;;;;;;4948893;28;20027;-83
2022/04/21 03:18:34;;;;;;;0.20;0.20;;;;;;;;;;4947693;28;20074;-83
2022/04/21 03:26:29;;;;;;;0.20;0.20;;;;;;;;;;4947838;28;20054;-83
2022/04/21 03:28:55;;;;;;;0.50;0.50;;;;;;;;;;4946391;28;20035;-83
2022/04/21 03:31:23;;;;;;;0.47;0.47;;;;;;;;;;4951640;28;20035;-84
2022/04/21 03:33:50;;;;;;;0.70;0.70;;;;;;;;;;4946022;28;20547;-82
2022/04/21 03:36:16;;;;;;;0.28;0.28;;;;;;;;;;4949548;28;20042;-83
2022/04/21 03:38:42;;;;;;;1.40;1.30;;;;;;;;;;4957253;28;20307;-83
2022/04/21 03:41:08;;;;;;;1.10;1.00;;;;;;;;;;4946780;28;20031;-83
2022/04/21 03:43:35;;;;;;;0.23;0.23;;;;;;;;;;4952953;28;20132;-83
2022/04/21 03:46:01;;;;;;;1.05;0.93;;;;;;;;;;4943631;28;20567;-83
2022/04/21 03:48:27;;;;;;;0.50;0.50;;;;;;;;;;4948224;28;20135;-83
2022/04/21 03:50:53;;;;;;;0.75;0.75;;;;;;;;;;4953640;28;20059;-82
2022/04/21 03:53:19;;;;;;;3.72;0.60;;;;;;;;;;4947439;28;20461;-82
2022/04/21 03:55:45;;;;;;;0.83;0.70;;;;;;;;;;4950600;28;20121;-83
2022/04/21 03:58:11;;;;;;;8.25;1.45;;;;;;;;;;4948405;28;20138;-82
2022/04/21 04:00:37;;;;;;;0.40;0.40;;;;;;;;;;4944465;29;20041;-83
2022/04/21 04:03:03;;;;;;;1.10;0.70;;;;;;;;;;4940925;28;20177;-83
2022/04/21 04:05:29;;;;;;;0.70;0.70;;;;;;;;;;4943321;29;20042;-82
2022/04/21 04:10:52;;;;;;;0.40;0.40;;;;;;;;;;4948437;28;20416;-83
2022/04/21 04:13:22;;;;;;;0.30;0.30;;;;;;;;;;4944527;28;20035;-83
2022/04/21 04:15:49;;;;;;;0.57;0.57;;;;;;;;;;4947174;28;20039;-84
2022/04/21 04:18:15;;;;;;;;;;;;;;;;;;4948350;28;20089;-83
2022/04/21 04:20:41;;;;;;;1.15;1.05;;;;;;;;;;4942962;28;19918;-83
2022/04/21 04:23:07;;;;;;;0.57;0.50;;;;;;;;;;4946301;29;20512;-83
2022/04/21 04:25:33;;;;;;;0.28;0.28;;;;;;;;;;4948178;28;20412;-81
2022/04/21 04:27:59;;;;;;;0.40;0.40;;;;;;;;;;4943956;28;20023;-83
2022/04/21 04:30:25;;;;;;;1.20;0.97;;;;;;;;;;4944660;28;20031;-82
2022/04/21 04:32:51;;;;;;;1.73;0.60;;;;;;;;;;4945142;28;20027;-81
2022/04/21 04:35:17;;;;;;;0.95;0.88;;;;;;;;;;4945521;28;20039;-81
2022/04/21 04:37:43;;;;;;;0.27;0.27;;;;;;;;;;4948530;28;20050;-82
2022/04/21 04:40:10;;;;;;;0.38;0.38;;;;;;;;;;4943820;28;20043;-83
2022/04/21 04:42:36;;;;;;;0.28;0.28;;;;;;;;;;4961252;28;20186;-83
2022/04/21 04:47:46;;;;;;;0.85;0.73;;;;;;;;;;4938456;28;20042;-82
2022/04/21 04:50:12;;;;;;;0.30;0.30;;;;;;;;;;4949684;28;20032;-82
2022/04/21 04:52:38;;;;;;;0.70;0.70;;;;;;;;;;4948958;28;20492;-84
2022/04/21 04:55:09;;;;;;;0.87;0.47;;;;;;;;;;4948278;28;20035;-84
2022/04/21 04:57:35;;;;;;;0.45;0.45;;;;;;;;;;4948346;28;20039;-84
2022/04/21 05:00:02;;;;;;;0.20;0.20;;;;;;;;;;4943013;28;20859;-85
2022/04/21 05:02:28;;;;;;;0.57;0.57;;;;;;;;;;4932104;28;20039;-86
2022/04/21 05:04:54;;;;;;;0.38;0.38;;;;;;;;;;4930664;28;22625;-86
2022/04/21 05:07:20;;;;;;;0.10;0.10;;;;;;;;;;4942609;28;20599;-85
2022/04/21 05:09:47;;;;;;;0.23;0.23;;;;;;;;;;4938782;28;20034;-85
2022/04/21 05:12:13;;;;;;;0.30;0.30;;;;;;;;;;4940619;28;20028;-85
2022/04/21 05:14:39;;;;;;;0.50;0.50;;;;;;;;;;4960587;28;20688;-85
2022/04/21 05:17:05;;;;;;;0.10;0.10;;;;;;;;;;4943815;28;20044;-84
2022/04/21 05:19:31;;;;;;;0.63;0.63;;;;;;;;;;4944230;28;20079;-85
2022/04/21 05:22:02;;;;;;;0.43;0.38;;;;;;;;;;4944445;28;20062;-85
2022/04/21 05:24:29;;;;;;;0.10;0.10;;;;;;;;;;4935373;28;20042;-84
2022/04/21 05:26:55;;;;;;;;;;;;;;;;;;4939718;29;20054;-86
2022/04/21 05:32:06;;;;;;;0.68;0.35;;;;;;;;;;4939481;28;20038;-84
2022/04/21 05:34:33;;;;;;;0.50;0.50;;;;;;;;;;4936938;28;20039;-84
2022/04/21 05:36:59;;;;;;;0.40;0.40;;;;;;;;;;4933668;28;20596;-86
2022/04/21 05:39:27;;;;;;;0.20;0.20;;;;;;;;;;4941798;28;20148;-85
2022/04/21 05:41:53;;;;;;;1.60;1.10;;;;;;;;;;4943341;28;20393;-84
2022/04/21 05:44:20;;;;;;;0.10;0.10;;;;;;;;;;4939056;28;20023;-85
2022/04/21 05:46:46;;;;;;;0.65;0.55;;;;;;;;;;4932063;28;20042;-86
2022/04/21 05:49:12;;;;;;;0.10;0.10;;;;;;;;;;4936850;28;20032;-85
2022/04/21 05:51:38;;;;;;;0.40;0.40;;;;;;;;;;4932535;29;20504;-86
2022/04/21 05:54:06;;;;;;;0.57;0.57;;;;;;;;;;4931749;28;20042;-84
2022/04/21 05:56:33;;;;;;;0.40;0.40;;;;;;;;;;4928392;28;20046;-85
2022/04/21 05:58:59;;;;;;;;;;;;;;;;;;4931012;29;20086;-84
2022/04/21 06:01:25;;;;;;;0.52;0.35;;;;;;;;;;4939581;28;19926;-85
2022/04/21 06:03:54;;;;;;;1.08;0.40;;;;;;;;;;4941416;28;20065;-86
2022/04/21 06:06:20;;;;;;;0.28;0.28;;;;;;;;;;4930929;29;20036;-84
2022/04/21 06:08:46;;;;;;;0.40;0.40;;;;;;;;;;4926706;28;20048;-84
2022/04/21 06:11:13;;;;;;;0.10;0.10;;;;;;;;;;4935020;28;20062;-85
2022/04/21 06:13:43;;;;;;;0.10;0.10;;;;;;;;;;4928992;29;20067;-82
2022/04/21 06:16:09;;;;;;;0.50;0.50;;;;;;;;;;4926820;28;20047;-84
2022/04/21 06:18:36;;;;;;;0.10;0.10;;;;;;;;;;4932001;29;20047;-82
2022/04/21 06:21:03;;;;;;;0.82;0.82;;;;;;;;;;4933808;28;20539;-83
2022/04/21 06:23:31;;;;;;;0.17;0.17;;;;;;;;;;4931295;28;20066;-82
2022/04/21 06:25:59;;;;;;;0.32;0.32;;;;;;;;;;4934260;28;20511;-82
2022/04/21 06:28:28;;;;;;;0.38;0.38;;;;;;;;;;4934897;28;20039;-82
2022/04/21 06:30:54;;;;;;;0.30;0.30;;;;;;;;;;4946701;28;20125;-82
2022/04/21 06:33:20;;;;;;;0.30;0.30;;;;;;;;;;4934981;28;20031;-83
2022/04/21 06:35:46;;;;;;;0.30;0.30;;;;;;;;;;4934975;28;20540;-83
2022/04/21 06:38:13;;;;;;;0.10;0.10;;;;;;;;;;4929877;28;20291;-85
2022/04/21 06:40:39;;;;;;;1.23;0.75;;;;;;;;;;4932525;28;20020;-83
2022/04/21 06:48:35;;;;;;;0.10;0.10;;;;;;;;;;4926717;29;20050;-83
2022/04/21 06:51:02;;;;;;;0.00;0.00;;;;;;;;;;4928514;28;20039;-82
2022/04/21 06:53:29;;;;;;;0.00;0.00;;;;;;;;;;4950493;28;20066;-83
2022/04/21 06:55:55;;;;;;;0.90;0.50;;;;;;;;;;4942450;28;20038;-82
2022/04/21 06:58:21;;;;;;;0.13;0.13;;;;;;;;;;4939043;28;20060;-83
2022/04/21 07:00:48;;;;;;;0.23;0.20;;;;;;;;;;4939401;28;20027;-84
2022/04/21 07:03:14;;;;;;;3.83;0.50;;;;;;;;;;4941956;28;20286;-82
2022/04/21 07:05:40;;;;;;;0.13;0.13;;;;;;;;;;4942141;28;20031;-82
2022/04/21 07:08:07;;;;;;;0.13;0.13;;;;;;;;;;4942085;28;20098;-82
2022/04/21 07:10:34;;;;;;;0.13;0.13;;;;;;;;;;4940618;28;20027;-82
2022/04/21 07:13:07;;;;;;;0.13;0.13;;;;;;;;;;4938306;28;20039;-84
2022/04/21 07:15:33;;;;;;;0.50;0.50;;;;;;;;;;4938687;28;20051;-82
2022/04/21 07:17:59;;;;;;;0.95;0.60;;;;;;;;;;4930778;28;20051;-81
2022/04/21 07:20:25;;;;;;;0.20;0.20;;;;;;;;;;4940994;28;20034;-81
2022/04/21 07:22:51;;;;;;;0.10;0.10;;;;;;;;;;4933834;28;20291;-80
2022/04/21 07:25:17;;;;;;;1.90;0.67;;;;;;;;;;4932828;29;20279;-81
2022/04/21 07:27:43;;;;;;;0.20;0.20;;;;;;;;;;4934281;28;20050;-80
2022/04/21 07:30:10;;;;;;;0.20;0.20;;;;;;;;;;4932154;29;20107;-80
2022/04/21 07:32:36;;;;;;;0.90;0.40;;;;;;;;;;4927771;28;20035;-81
2022/04/21 07:35:02;;;;;;;0.20;0.20;;;;;;;;;;4936872;28;20051;-80
2022/04/21 07:37:30;;;;;;;0.73;0.73;;;;;;;;;;4928927;28;20445;-81
2022/04/21 07:39:56;;;;;;;0.08;0.08;;;;;;;;;;4930876;28;20432;-81
2022/04/21 07:42:23;;;;;;;0.30;0.30;;;;;;;;;;4932688;28;20027;-81
2022/04/21 07:44:49;;;;;;;0.10;0.10;;;;;;;;;;4929474;28;20054;-80
2022/04/21 07:47:15;;;;;;;0.27;0.27;;;;;;;;;;4930042;28;20041;-82
2022/04/21 07:49:47;;;;;;;1.27;0.77;;;;;;;;;;4930587;29;20290;-84
2022/04/21 07:55:07;;;;;;;0.47;0.47;;;;;;;;;;4928947;28;20050;-83
2022/04/21 07:57:33;;;;;;;0.15;0.15;;;;;;;;;;4931208;29;20075;-84
2022/04/21 07:59:59;;;;;;;0.40;0.30;;;;;;;;;;4932507;28;21766;-83
2022/04/21 08:02:25;;;;;;;0.10;0.10;;;;;;;;;;4930163;28;20039;-84
2022/04/21 08:04:51;;;;;;;3.40;2.20;;;;;;;;;;4929626;28;20406;-83
2022/04/21 08:07:17;;;;;;;0.30;0.30;;;;;;;;;;4949095;28;20066;-83
2022/04/21 08:09:44;;;;;;;0.30;0.30;;;;;;;;;;4929852;28;20283;-81
2022/04/21 08:12:10;;;;;;;1.10;0.55;;;;;;;;;;4930134;29;20047;-81
2022/04/21 08:14:36;;;;;;;0.98;0.60;;;;;;;;;;4936358;28;20043;-80
2022/04/21 08:17:06;;;;;;;0.67;0.43;;;;;;;;;;4954344;28;20215;-81
2022/04/21 08:19:32;;;;;;;0.55;0.55;;;;;;;;;;4933655;28;20067;-81
2022/04/21 08:21:59;;;;;;;;;;;;;;;;;;4940121;28;20062;-82
2022/04/21 08:32:45;;;;;;;0.20;0.20;;;;;;;;;;4942711;28;20073;-81
2022/04/21 08:35:13;;;;;;;0.17;0.13;;;;;;;;;;4945858;28;20066;-81
2022/04/21 08:37:40;;;;;;;0.57;0.45;;;;;;;;;;4944492;28;20039;-81
2022/04/21 08:40:08;;;;;;;0.55;0.55;;;;;;;;;;4945254;28;20031;-81
2022/04/21 08:42:37;;;;;;;0.40;0.40;;;;;;;;;;4943871;28;20046;-81
2022/04/21 08:45:03;;;;;;;0.10;0.10;;;;;;;;;;4944043;28;20035;-81
2022/04/21 08:47:29;;;;;;;1.85;0.55;;;;;;;;;;4944433;28;20043;-82
2022/04/21 08:50:05;;;;;;;1.25;0.65;;;;;;;;;;4943481;28;20031;-81
2022/04/21 08:52:31;;;;;;;0.38;0.38;;;;;;;;;;4942418;28;20093;-82
2022/04/21 08:54:57;;;;;;;0.22;0.22;;;;;;;;;;4941332;29;20218;-82
2022/04/21 08:57:23;;;;;;;2.55;1.38;;;;;;;;;;4942180;29;20051;-81
2022/04/21 08:59:49;;;;;;;0.38;0.38;;;;;;;;;;4940849;29;20068;-81
2022/04/21 09:02:15;;;;;;;0.50;0.50;;;;;;;;;;4938640;29;20178;-82
2022/04/21 09:04:42;;;;;;;0.00;0.00;;;;;;;;;;4939139;28;20039;-81
2022/04/21 09:07:15;;;;;;;0.30;0.30;;;;;;;;;;4945180;28;20130;-83
2022/04/21 09:09:59;;;;;;;0.70;0.52;;;;;;;;;;4938944;28;20871;-82
2022/04/21 09:12:25;;;;;;;1.08;0.80;;;;;;;;;;4938155;28;20027;-82
2022/04/21 09:14:51;;;;;;;0.47;0.45;;;;;;;;;;4942442;28;20798;-81
2022/04/21 09:17:17;;;;;;;0.25;0.25;;;;;;;;;;4945727;28;20043;-82
2022/04/21 09:19:56;;;;;;;0.33;0.30;;;;;;;;;;4940536;28;20464;-83
2022/04/21 09:22:23;;;;;;;0.10;0.10;;;;;;;;;;4939687;28;20294;-81
2022/04/21 09:24:52;;;;;;;0.47;0.47;;;;;;;;;;4941430;28;20036;-81
2022/04/21 09:27:18;;;;;;;0.10;0.10;;;;;;;;;;4941128;28;20027;-82
2022/04/21 09:29:44;;;;;;;0.40;0.40;;;;;;;;;;4940009;28;20046;-82
2022/04/21 09:32:10;;;;;;;0.40;0.40;;;;;;;;;;4943202;28;20043;-83
2022/04/21 09:34:37;;;;;;;0.20;0.20;;;;;;;;;;4941584;29;20031;-82
2022/04/21 09:37:07;;;;;;;0.52;0.50;;;;;;;;;;4943503;28;20046;-85
2022/04/21 09:39:38;;;;;;;1.27;0.22;;;;;;;;;;4945461;28;20027;-84
2022/04/21 09:42:05;;;;;;;0.57;0.30;;;;;;;;;;4940873;28;20112;-83
2022/04/21 09:47:20;;;;;;;0.25;0.10;;;;;;;;;;4948173;28;20423;-85
2022/04/21 09:49:46;;;;;;;0.38;0.38;;;;;;;;;;4955987;28;20468;-85
2022/04/21 09:52:12;;;;;;;1.20;0.73;;;;;;;;;;4954638;28;20137;-83
2022/04/21 09:54:45;;;;;;;0.28;0.22;;;;;;;;;;4956438;28;20031;-85
2022/04/21 09:57:11;;;;;;;0.10;0.10;;;;;;;;;;4945068;28;20722;-85
2022/04/21 09:59:38;;;;;;;0.85;0.30;;;;;;;;;;4946725;28;20031;-84
2022/04/21 10:02:04;;;;;;;1.20;1.13;;;;;;;;;;4947908;28;20043;-84
2022/04/21 10:04:31;;;;;;;0.80;0.80;;;;;;;;;;4945405;28;20037;-84
2022/04/21 10:06:57;;;;;;;;;;;;;;;;;;4946908;28;20130;-84
2022/04/21 10:09:23;;;;;;;1.35;0.75;;;;;;;;;;4945239;28;19997;-84
2022/04/21 10:11:52;;;;;;;0.40;0.40;;;;;;;;;;4942394;28;20042;-84
2022/04/21 10:14:18;;;;;;;0.30;0.30;;;;;;;;;;4950325;28;20469;-84
2022/04/21 10:16:44;;;;;;;0.30;0.30;;;;;;;;;;4946386;28;20453;-85
2022/04/21 10:19:12;;;;;;;0.70;0.70;;;;;;;;;;4946575;28;20062;-84
2022/04/21 10:21:42;;;;;;;0.60;0.60;;;;;;;;;;4944406;28;20027;-85
2022/04/21 10:24:08;;;;;;;0.77;0.77;;;;;;;;;;4959094;28;20042;-83
2022/04/21 10:26:41;;;;;;;0.28;0.28;;;;;;;;;;4945965;28;20023;-84
2022/04/21 10:29:11;;;;;;;0.63;0.47;;;;;;;;;;4947306;28;20070;-85
2022/04/21 10:31:45;;;;;;;0.08;0.08;;;;;;;;;;4945423;28;20027;-84
2022/04/21 10:34:11;;;;;;;0.10;0.10;;;;;;;;;;4946160;28;20917;-85
2022/04/21 10:36:41;;;;;;;0.20;0.20;;;;;;;;;;4946229;28;20041;-85
2022/04/21 10:39:30;;;;;;;0.10;0.10;;;;;;;;;;4944670;28;20040;-84
2022/04/21 10:42:15;;;;;;;0.25;0.25;;;;;;;;;;4941740;28;20031;-85
2022/04/21 10:44:42;;;;;;;1.45;0.45;;;;;;;;;;4945818;28;20046;-85
2022/04/21 10:47:27;;;;;;;0.25;0.25;;;;;;;;;;4948367;28;20617;-85
2022/04/21 10:49:56;;;;;;;1.27;0.22;;;;;;;;;;4946160;28;20260;-84
2022/04/21 10:57:47;;;;;;;0.50;0.20;;;;;;;;;;4946047;28;20130;-84
2022/04/21 11:00:25;;;;;;;0.40;0.40;;;;;;;;;;4943539;28;20509;-83
2022/04/21 11:03:04;;;;;;;1.02;0.82;;;;;;;;;;4956763;28;20031;-84
2022/04/21 11:05:34;;;;;;;2.03;0.45;;;;;;;;;;4956868;28;20808;-83
2022/04/21 11:08:02;;;;;;;0.22;0.22;;;;;;;;;;4947650;28;20034;-84
2022/04/21 11:10:39;;;;;;;0.25;0.25;;;;;;;;;;4945624;28;20178;-84
2022/04/21 11:13:06;;;;;;;0.10;0.10;;;;;;;;;;4946326;28;20138;-84
2022/04/21 11:15:32;;;;;;;;;;;;;;;;;;4946983;28;20441;-84
2022/04/21 11:17:59;;;;;;;0.73;0.55;;;;;;;;;;4943857;28;19923;-83
2022/04/21 11:20:25;;;;;;;0.20;0.20;;;;;;;;;;4947838;28;20038;-84
2022/04/21 11:22:51;;;;;;;0.40;0.40;;;;;;;;;;4947396;28;20187;-84
2022/04/21 11:25:18;;;;;;;0.40;0.40;;;;;;;;;;4946606;28;20558;-84
2022/04/21 11:27:45;;;;;;;0.30;0.30;;;;;;;;;;4947788;28;20031;-84
2022/04/21 11:30:13;;;;;;;0.25;0.25;;;;;;;;;;4943744;28;20437;-84
2022/04/21 11:32:39;;;;;;;0.30;0.30;;;;;;;;;;4963757;28;20027;-84
2022/04/21 11:35:07;;;;;;;3.28;1.77;;;;;;;;;;4949953;28;20031;-85
2022/04/21 11:37:44;;;;;;;0.20;0.20;;;;;;;;;;4949953;28;20640;-83
2022/04/21 11:40:20;;;;;;;0.20;0.20;;;;;;;;;;4949516;28;20035;-84
2022/04/21 11:42:47;;;;;;;0.60;0.43;;;;;;;;;;4949753;28;20034;-84
2022/04/21 11:45:17;;;;;;;0.38;0.38;;;;;;;;;;4948134;28;20067;-84
2022/04/21 11:47:43;;;;;;;0.17;0.17;;;;;;;;;;4947862;28;20035;-84
2022/04/21 11:50:13;;;;;;;0.28;0.28;;;;;;;;;;4951403;28;20062;-85
2022/04/21 11:52:42;;;;;;;0.52;0.43;;;;;;;;;;4949735;28;20555;-86
2022/04/21 11:55:09;;;;;;;0.25;0.22;;;;;;;;;;4949753;28;20054;-82
2022/04/21 11:57:42;;;;;;;0.32;0.32;;;;;;;;;;4950463;28;20047;-84
2022/04/21 12:00:09;;;;;;;0.10;0.10;;;;;;;;;;4944599;28;20548;-84
2022/04/21 12:08:08;;;;;;;0.15;0.15;;;;;;;;;;4951318;28;20515;-84
2022/04/21 12:10:37;;;;;;;0.10;0.10;;;;;;;;;;4948763;28;20031;-84
2022/04/21 12:13:03;;;;;;;0.10;0.10;;;;;;;;;;4949064;28;20070;-84
2022/04/21 12:15:30;;;;;;;0.10;0.10;;;;;;;;;;4951099;28;20031;-84
2022/04/21 12:18:00;;;;;;;1.85;0.75;;;;;;;;;;4944856;28;20082;-84
2022/04/21 12:20:26;;;;;;;0.03;0.03;;;;;;;;;;4949087;28;20039;-84
2022/04/21 12:22:52;;;;;;;0.20;0.20;;;;;;;;;;4949586;28;20127;-84
2022/04/21 12:25:18;;;;;;;0.52;0.43;;;;;;;;;;4947459;28;20043;-84
2022/04/21 12:27:44;;;;;;;0.38;0.38;;;;;;;;;;4957662;28;20031;-84
2022/04/21 12:30:15;;;;;;;0.85;0.68;;;;;;;;;;4945156;28;20074;-82
2022/04/21 12:32:48;;;;;;;0.75;0.30;;;;;;;;;;4960509;28;20027;-85
2022/04/21 12:35:14;;;;;;;0.82;0.82;;;;;;;;;;4952318;28;20023;-83
2022/04/21 12:37:42;;;;;;;0.17;0.10;;;;;;;;;;4949817;28;20109;-84
2022/04/21 12:40:12;;;;;;;2.22;1.27;;;;;;;;;;4950836;28;20031;-84
2022/04/21 12:42:40;;;;;;;1.33;0.55;;;;;;;;;;4948301;28;20027;-82
2022/04/21 12:45:06;;;;;;;0.57;0.57;;;;;;;;;;4946169;28;20062;-84
2022/04/21 12:47:41;;;;;;;0.10;0.10;;;;;;;;;;4947633;28;20691;-84
2022/04/21 12:50:08;;;;;;;0.55;0.30;;;;;;;;;;4949696;28;20061;-83
2022/04/21 12:52:34;;;;;;;;;;;;;;;;;;4946162;28;20035;-84
2022/04/21 12:55:01;;;;;;;0.55;0.55;;;;;;;;;;4948695;28;19929;-84
2022/04/21 12:57:27;;;;;;;;;;;;;;;;;;4950613;28;20150;-84
2022/04/21 12:59:56;;;;;;;0.30;0.30;;;;;;;;;;4944651;29;20197;-85
2022/04/21 13:02:23;;;;;;;0.30;0.30;;;;;;;;;;4958819;28;20130;-84
2022/04/21 13:04:49;;;;;;;0.73;0.38;;;;;;;;;;4949906;28;20086;-84
2022/04/21 13:07:15;;;;;;;0.30;0.30;;;;;;;;;;4948020;28;20035;-85
2022/04/21 13:09:41;;;;;;;0.40;0.40;;;;;;;;;;4947359;28;20590;-85
2022/04/21 13:12:07;;;;;;;0.43;0.43;;;;;;;;;;4945927;28;20106;-84
2022/04/21 13:14:33;;;;;;;0.43;0.43;;;;;;;;;;4946858;28;20031;-85
2022/04/21 13:16:59;;;;;;;0.30;0.30;;;;;;;;;;4949041;28;20452;-84
2022/04/21 13:19:25;;;;;;;0.10;0.10;;;;;;;;;;4943188;28;20302;-84
2022/04/21 13:21:57;;;;;;;0.13;0.13;;;;;;;;;;4947770;28;20054;-84
2022/04/21 13:24:24;;;;;;;0.30;0.25;;;;;;;;;;4947501;28;20026;-84
2022/04/21 13:26:50;;;;;;;0.03;0.03;;;;;;;;;;4945039;28;20034;-84
2022/04/21 13:29:16;;;;;;;0.22;0.22;;;;;;;;;;4946041;28;20041;-84
2022/04/21 13:34:27;;;;;;;0.15;0.15;;;;;;;;;;4948675;28;20297;-84
2022/04/21 13:36:53;;;;;;;0.20;0.20;;;;;;;;;;4947484;28;20042;-85
2022/04/21 13:39:19;;;;;;;1.02;0.52;;;;;;;;;;4947658;28;20052;-85
2022/04/21 13:41:46;;;;;;;0.30;0.30;;;;;;;;;;4945633;28;20134;-83
2022/04/21 13:44:14;;;;;;;0.43;0.43;;;;;;;;;;4949654;28;20190;-84
2022/04/21 13:46:40;;;;;;;0.40;0.40;;;;;;;;;;4947635;28;20035;-84
2022/04/21 13:49:06;;;;;;;0.67;0.67;;;;;;;;;;4945328;28;20956;-85
2022/04/21 13:51:32;;;;;;;0.10;0.10;;;;;;;;;;4948376;28;20031;-84
2022/04/21 13:53:58;;;;;;;0.00;0.00;;;;;;;;;;4943383;28;20324;-85
2022/04/21 13:56:25;;;;;;;0.55;0.55;;;;;;;;;;4949723;28;20058;-83
2022/04/21 13:58:51;;;;;;;0.13;0.13;;;;;;;;;;4947941;28;20058;-85
2022/04/21 14:01:17;;;;;;;0.10;0.10;;;;;;;;;;4947124;28;20500;-85
2022/04/21 14:03:44;;;;;;;1.08;0.73;;;;;;;;;;4948172;28;20606;-84
2022/04/21 14:06:10;;;;;;;0.30;0.30;;;;;;;;;;4945028;28;20051;-84
2022/04/21 14:08:37;;;;;;;0.10;0.10;;;;;;;;;;4946364;28;20043;-83
2022/04/21 14:11:03;;;;;;;0.20;0.20;;;;;;;;;;4957678;28;20038;-84
2022/04/21 14:13:30;;;;;;;1.40;0.30;;;;;;;;;;4949021;28;20031;-84
2022/04/21 14:15:56;;;;;;;0.00;0.00;;;;;;;;;;4946732;28;20082;-84
2022/04/21 14:18:22;;;;;;;0.10;0.10;;;;;;;;;;4945797;28;20066;-84
2022/04/21 14:20:48;;;;;;;0.10;0.10;;;;;;;;;;4954264;28;20504;-84
2022/04/21 14:23:15;;;;;;;0.10;0.10;;;;;;;;;;4949327;28;20059;-83
2022/04/21 14:25:42;;;;;;;0.00;0.00;;;;;;;;;;4946567;28;20094;-84
2022/04/21 14:28:08;;;;;;;0.00;0.00;;;;;;;;;;4945080;28;20042;-83
2022/04/21 14:30:34;;;;;;;0.10;0.10;;;;;;;;;;4941863;28;20042;-84
2022/04/21 14:33:00;;;;;;;0.10;0.10;;;;;;;;;;4957408;28;20036;-85
2022/04/21 14:35:26;;;;;;;0.20;0.20;;;;;;;;;;4964604;28;20065;-85
2022/04/21 14:46:07;;;;;;;0.28;0.28;;;;;;;;;;4945788;28;20085;-84
2022/04/21 14:48:33;;;;;;;0.10;0.10;;;;;;;;;;4946353;28;20066;-84
2022/04/21 14:50:59;;;;;;;0.63;0.30;;;;;;;;;;4942760;28;20051;-85
2022/04/21 14:53:26;;;;;;;0.20;0.20;;;;;;;;;;4949057;28;20549;-85
2022/04/21 14:55:52;;;;;;;0.20;0.15;;;;;;;;;;4948085;28;20023;-85
2022/04/21 14:58:21;;;;;;;0.10;0.10;;;;;;;;;;4945309;28;20984;-85
2022/04/21 15:00:47;;;;;;;1.35;0.60;;;;;;;;;;4946281;28;20146;-85
2022/04/21 15:03:13;;;;;;;0.30;0.30;;;;;;;;;;4944602;28;20074;-84
2022/04/21 15:05:43;;;;;;;7.72;1.08;;;;;;;;;;4948067;28;20067;-85
2022/04/21 15:08:09;;;;;;;0.15;0.15;;;;;;;;;;4951684;28;20048;-84
2022/04/21 15:10:37;;;;;;;0.20;0.20;;;;;;;;;;4949548;28;20035;-85
2022/04/21 15:13:06;;;;;;;0.32;0.32;;;;;;;;;;4950121;28;20032;-84
2022/04/21 15:15:32;;;;;;;1.25;1.15;;;;;;;;;;4949363;28;20062;-85
2022/04/21 15:17:59;;;;;;;0.20;0.20;;;;;;;;;;4945922;28;20598;-85
2022/04/21 15:20:25;;;;;;;0.20;0.20;;;;;;;;;;4952479;28;20566;-85
2022/04/21 15:22:51;;;;;;;0.15;0.15;;;;;;;;;;4950508;28;20424;-86
2022/04/21 15:25:18;;;;;;;0.20;0.20;;;;;;;;;;4946503;28;20082;-85
2022/04/21 15:27:44;;;;;;;0.28;0.28;;;;;;;;;;4947424;28;20031;-84
2022/04/21 15:30:10;;;;;;;0.50;0.50;;;;;;;;;;4953949;28;20047;-84
2022/04/21 15:32:36;;;;;;;0.08;0.08;;;;;;;;;;4965672;28;20404;-84
2022/04/21 15:35:02;;;;;;;0.17;0.17;;;;;;;;;;4950788;28;20035;-84
2022/04/21 15:37:28;;;;;;;0.10;0.10;;;;;;;;;;4949609;28;20142;-84
2022/04/21 15:39:54;;;;;;;0.03;0.03;;;;;;;;;;4949535;28;20022;-85
2022/04/21 15:42:20;;;;;;;0.13;0.13;;;;;;;;;;4960405;28;20558;-84
2022/04/21 15:44:46;;;;;;;0.30;0.30;;;;;;;;;;4946751;28;20038;-83
2022/04/21 15:47:12;;;;;;;0.30;0.30;;;;;;;;;;4951557;28;20098;-84
2022/04/21 15:49:38;;;;;;;0.37;0.37;;;;;;;;;;4949565;28;20712;-84
2022/04/21 15:52:05;;;;;;;0.30;0.30;;;;;;;;;;4949426;28;20297;-84